sensor_id;sensor_type;location;lat;lon;timestamp;pressure;altitude;pressure_sealevel;temperature;humidity
22688;BME280;11511;51.514;7.080;2022-07-17T00:01:28;102066.88;;;13.29;71.39
22688;BME280;11511;51.514;7.080;2022-07-17T00:03:53;102068.81;;;13.23;71.41
22688;BME280;11511;51.514;7.080;2022-07-17T00:06:19;102064.28;;;13.28;71.75
22688;BME280;11511;51.514;7.080;2022-07-17T00:08:45;102068.84;;;13.21;72.26
22688;BME280;11511;51.514;7.080;2022-07-17T00:11:11;102074.25;;;13.16;72.36
22688;BME280;11511;51.514;7.080;2022-07-17T00:13:37;102070.06;;;13.06;72.77
22688;BME280;11511;51.514;7.080;2022-07-17T00:16:02;102067.63;;;12.97;73.06
22688;BME280;11511;51.514;7.080;2022-07-17T00:18:29;102056.91;;;13.03;72.70
22688;BME280;11511;51.514;7.080;2022-07-17T00:20:55;102053.50;;;12.98;72.92
22688;BME280;11511;51.514;7.080;2022-07-17T00:23:20;102049.78;;;13.07;72.17
22688;BME280;11511;51.514;7.080;2022-07-17T00:25:46;102048.91;;;13.06;72.21
22688;BME280;11511;51.514;7.080;2022-07-17T00:28:12;102048.66;;;13.17;71.89
22688;BME280;11511;51.514;7.080;2022-07-17T00:30:38;102046.19;;;13.09;72.41
22688;BME280;11511;51.514;7.080;2022-07-17T00:33:04;102052.59;;;12.99;72.74
22688;BME280;11511;51.514;7.080;2022-07-17T00:35:30;102044.75;;;12.95;72.98
22688;BME280;11511;51.514;7.080;2022-07-17T00:37:55;102051.81;;;12.94;72.83
22688;BME280;11511;51.514;7.080;2022-07-17T00:40:23;102063.59;;;12.81;73.56
22688;BME280;11511;51.514;7.080;2022-07-17T00:42:50;102068.91;;;12.81;73.69
22688;BME280;11511;51.514;7.080;2022-07-17T00:45:16;102062.75;;;12.79;73.84
22688;BME280;11511;51.514;7.080;2022-07-17T00:48:04;102063.69;;;12.76;74.03
22688;BME280;11511;51.514;7.080;2022-07-17T00:50:38;102056.94;;;12.63;74.94
22688;BME280;11511;51.514;7.080;2022-07-17T00:53:05;102061.22;;;12.69;74.74
22688;BME280;11511;51.514;7.080;2022-07-17T00:55:31;102066.56;;;12.66;74.82
22688;BME280;11511;51.514;7.080;2022-07-17T00:58:00;102061.28;;;12.66;75.28
22688;BME280;11511;51.514;7.080;2022-07-17T01:00:26;102062.50;;;12.51;75.77
22688;BME280;11511;51.514;7.080;2022-07-17T01:02:53;102059.94;;;12.46;76.03
22688;BME280;11511;51.514;7.080;2022-07-17T01:05:20;102063.53;;;12.44;76.52
22688;BME280;11511;51.514;7.080;2022-07-17T01:07:48;102072.50;;;12.35;78.13
22688;BME280;11511;51.514;7.080;2022-07-17T01:10:15;102068.91;;;12.39;78.15
22688;BME280;11511;51.514;7.080;2022-07-17T01:12:42;102067.25;;;12.34;77.35
22688;BME280;11511;51.514;7.080;2022-07-17T01:15:09;102055.75;;;12.36;77.56
22688;BME280;11511;51.514;7.080;2022-07-17T01:17:36;102062.06;;;12.31;77.91
22688;BME280;11511;51.514;7.080;2022-07-17T01:20:04;102063.06;;;12.24;77.79
22688;BME280;11511;51.514;7.080;2022-07-17T01:22:32;102063.97;;;12.23;78.10
22688;BME280;11511;51.514;7.080;2022-07-17T01:24:58;102062.91;;;12.31;77.68
22688;BME280;11511;51.514;7.080;2022-07-17T01:27:24;102067.34;;;12.31;76.95
22688;BME280;11511;51.514;7.080;2022-07-17T01:29:50;102066.38;;;12.33;76.97
22688;BME280;11511;51.514;7.080;2022-07-17T01:32:15;102061.47;;;12.15;77.95
22688;BME280;11511;51.514;7.080;2022-07-17T01:34:41;102050.41;;;11.96;78.35
22688;BME280;11511;51.514;7.080;2022-07-17T01:37:07;102052.31;;;12.31;77.04
22688;BME280;11511;51.514;7.080;2022-07-17T01:39:32;102063.91;;;12.26;77.40
22688;BME280;11511;51.514;7.080;2022-07-17T01:42:17;102063.78;;;12.32;76.45
22688;BME280;11511;51.514;7.080;2022-07-17T01:44:42;102054.25;;;12.65;75.14
22688;BME280;11511;51.514;7.080;2022-07-17T01:47:08;102055.88;;;12.72;74.14
22688;BME280;11511;51.514;7.080;2022-07-17T01:49:34;102054.00;;;12.77;73.88
22688;BME280;11511;51.514;7.080;2022-07-17T01:51:59;102057.53;;;12.76;74.18
22688;BME280;11511;51.514;7.080;2022-07-17T01:54:29;102063.56;;;12.82;73.70
22688;BME280;11511;51.514;7.080;2022-07-17T01:56:55;102051.22;;;12.83;73.32
22688;BME280;11511;51.514;7.080;2022-07-17T01:59:21;102058.31;;;12.81;74.07
22688;BME280;11511;51.514;7.080;2022-07-17T02:01:47;102052.56;;;12.61;74.42
22688;BME280;11511;51.514;7.080;2022-07-17T02:04:13;102047.19;;;12.65;74.92
22688;BME280;11511;51.514;7.080;2022-07-17T02:06:39;102046.53;;;12.57;74.86
22688;BME280;11511;51.514;7.080;2022-07-17T02:09:04;102046.75;;;12.46;75.23
22688;BME280;11511;51.514;7.080;2022-07-17T02:11:30;102049.28;;;12.51;74.85
22688;BME280;11511;51.514;7.080;2022-07-17T02:13:56;102046.81;;;12.43;75.48
22688;BME280;11511;51.514;7.080;2022-07-17T02:16:22;102043.13;;;12.50;75.31
22688;BME280;11511;51.514;7.080;2022-07-17T02:18:48;102041.25;;;12.56;74.91
22688;BME280;11511;51.514;7.080;2022-07-17T02:21:14;102044.94;;;12.48;75.03
22688;BME280;11511;51.514;7.080;2022-07-17T02:23:40;102042.44;;;12.41;76.15
22688;BME280;11511;51.514;7.080;2022-07-17T02:26:05;102058.56;;;12.29;76.79
22688;BME280;11511;51.514;7.080;2022-07-17T02:28:31;102054.97;;;12.31;76.69
22688;BME280;11511;51.514;7.080;2022-07-17T02:30:56;102043.09;;;12.09;77.15
22688;BME280;11511;51.514;7.080;2022-07-17T02:33:22;102048.28;;;12.15;76.90
22688;BME280;11511;51.514;7.080;2022-07-17T02:35:48;102039.94;;;12.35;76.11
22688;BME280;11511;51.514;7.080;2022-07-17T02:38:14;102040.19;;;12.24;76.63
22688;BME280;11511;51.514;7.080;2022-07-17T02:40:39;102043.69;;;12.25;76.74
22688;BME280;11511;51.514;7.080;2022-07-17T02:43:08;102049.13;;;12.17;77.18
22688;BME280;11511;51.514;7.080;2022-07-17T02:45:34;102055.28;;;12.17;77.26
22688;BME280;11511;51.514;7.080;2022-07-17T02:48:00;102052.19;;;11.96;78.96
22688;BME280;11511;51.514;7.080;2022-07-17T02:50:25;102060.25;;;11.88;79.47
22688;BME280;11511;51.514;7.080;2022-07-17T02:52:51;102060.50;;;11.73;80.04
22688;BME280;11511;51.514;7.080;2022-07-17T02:55:18;102053.66;;;11.61;80.92
22688;BME280;11511;51.514;7.080;2022-07-17T02:57:44;102049.31;;;11.59;80.86
22688;BME280;11511;51.514;7.080;2022-07-17T03:00:13;102045.94;;;11.50;81.32
22688;BME280;11511;51.514;7.080;2022-07-17T03:02:42;102049.56;;;11.46;81.42
22688;BME280;11511;51.514;7.080;2022-07-17T03:05:08;102042.66;;;11.38;81.75
22688;BME280;11511;51.514;7.080;2022-07-17T03:07:34;102042.69;;;11.36;82.44
22688;BME280;11511;51.514;7.080;2022-07-17T03:10:00;102043.75;;;11.23;83.36
22688;BME280;11511;51.514;7.080;2022-07-17T03:12:26;102044.88;;;11.10;84.32
22688;BME280;11511;51.514;7.080;2022-07-17T03:14:51;102054.47;;;11.14;83.91
22688;BME280;11511;51.514;7.080;2022-07-17T03:17:17;102055.44;;;11.08;83.69
22688;BME280;11511;51.514;7.080;2022-07-17T03:19:43;102059.03;;;11.04;84.62
22688;BME280;11511;51.514;7.080;2022-07-17T03:22:08;102052.09;;;10.97;84.70
22688;BME280;11511;51.514;7.080;2022-07-17T03:24:34;102060.03;;;10.94;84.66
22688;BME280;11511;51.514;7.080;2022-07-17T03:27:00;102062.69;;;10.94;84.59
22688;BME280;11511;51.514;7.080;2022-07-17T03:29:25;102070.75;;;10.83;85.59
22688;BME280;11511;51.514;7.080;2022-07-17T03:31:51;102069.06;;;10.78;85.69
22688;BME280;11511;51.514;7.080;2022-07-17T03:34:17;102071.72;;;10.76;85.72
22688;BME280;11511;51.514;7.080;2022-07-17T03:36:43;102073.28;;;10.91;84.83
22688;BME280;11511;51.514;7.080;2022-07-17T03:39:10;102072.44;;;10.89;85.08
22688;BME280;11511;51.514;7.080;2022-07-17T03:41:36;102071.53;;;10.92;85.40
22688;BME280;11511;51.514;7.080;2022-07-17T03:44:02;102061.63;;;11.06;84.44
22688;BME280;11511;51.514;7.080;2022-07-17T03:46:28;102066.84;;;11.10;84.44
22688;BME280;11511;51.514;7.080;2022-07-17T03:48:54;102066.91;;;11.06;84.46
22688;BME280;11511;51.514;7.080;2022-07-17T03:51:19;102077.53;;;11.01;85.60
22688;BME280;11511;51.514;7.080;2022-07-17T03:53:45;102073.19;;;10.97;85.64
22688;BME280;11511;51.514;7.080;2022-07-17T03:56:11;102071.41;;;10.98;85.59
22688;BME280;11511;51.514;7.080;2022-07-17T03:58:37;102066.88;;;11.07;85.17
22688;BME280;11511;51.514;7.080;2022-07-17T04:01:03;102060.53;;;11.21;84.15
22688;BME280;11511;51.514;7.080;2022-07-17T04:03:29;102063.72;;;11.41;82.90
22688;BME280;11511;51.514;7.080;2022-07-17T04:05:54;102070.50;;;11.54;82.49
22688;BME280;11511;51.514;7.080;2022-07-17T04:08:20;102071.13;;;11.70;81.56
22688;BME280;11511;51.514;7.080;2022-07-17T04:10:46;102067.19;;;11.94;79.81
22688;BME280;11511;51.514;7.080;2022-07-17T04:13:11;102074.19;;;11.96;80.41
22688;BME280;11511;51.514;7.080;2022-07-17T04:15:37;102066.78;;;12.13;79.01
22688;BME280;11511;51.514;7.080;2022-07-17T04:18:23;102072.66;;;12.29;78.23
22688;BME280;11511;51.514;7.080;2022-07-17T04:20:50;102061.91;;;12.37;77.72
22688;BME280;11511;51.514;7.080;2022-07-17T04:23:17;102060.41;;;12.65;76.63
22688;BME280;11511;51.514;7.080;2022-07-17T04:25:43;102063.88;;;13.07;74.94
22688;BME280;11511;51.514;7.080;2022-07-17T04:28:10;102068.19;;;13.11;74.40
22688;BME280;11511;51.514;7.080;2022-07-17T04:30:36;102066.84;;;13.31;73.11
22688;BME280;11511;51.514;7.080;2022-07-17T04:33:02;102072.28;;;13.60;72.23
22688;BME280;11511;51.514;7.080;2022-07-17T04:35:29;102075.31;;;14.11;70.70
22688;BME280;11511;51.514;7.080;2022-07-17T04:37:54;102078.81;;;14.44;68.19
22688;BME280;11511;51.514;7.080;2022-07-17T04:40:20;102068.31;;;14.40;68.24
22688;BME280;11511;51.514;7.080;2022-07-17T04:42:46;102064.75;;;13.77;70.50
22688;BME280;11511;51.514;7.080;2022-07-17T04:45:12;102066.13;;;13.60;71.61
22688;BME280;11511;51.514;7.080;2022-07-17T04:47:40;102077.09;;;13.44;72.82
22688;BME280;11511;51.514;7.080;2022-07-17T04:50:07;102070.25;;;13.36;72.91
22688;BME280;11511;51.514;7.080;2022-07-17T04:52:33;102069.22;;;13.41;72.88
22688;BME280;11511;51.514;7.080;2022-07-17T04:54:58;102071.00;;;13.41;71.96
22688;BME280;11511;51.514;7.080;2022-07-17T04:57:24;102070.63;;;13.56;72.00
22688;BME280;11511;51.514;7.080;2022-07-17T04:59:50;102073.94;;;13.64;71.83
22688;BME280;11511;51.514;7.080;2022-07-17T05:02:17;102079.44;;;13.57;71.72
22688;BME280;11511;51.514;7.080;2022-07-17T05:04:43;102082.75;;;13.65;71.21
22688;BME280;11511;51.514;7.080;2022-07-17T05:07:08;102093.47;;;13.60;71.10
22688;BME280;11511;51.514;7.080;2022-07-17T05:09:35;102097.31;;;13.81;71.37
22688;BME280;11511;51.514;7.080;2022-07-17T05:12:01;102101.28;;;13.97;71.45
22688;BME280;11511;51.514;7.080;2022-07-17T05:14:27;102114.19;;;14.11;70.91
22688;BME280;11511;51.514;7.080;2022-07-17T05:16:53;102115.59;;;14.22;69.48
22688;BME280;11511;51.514;7.080;2022-07-17T05:19:18;102113.53;;;14.34;69.41
22688;BME280;11511;51.514;7.080;2022-07-17T05:21:44;102109.22;;;14.30;69.24
22688;BME280;11511;51.514;7.080;2022-07-17T05:24:10;102115.31;;;14.33;69.18
22688;BME280;11511;51.514;7.080;2022-07-17T05:26:36;102116.69;;;14.49;68.60
22688;BME280;11511;51.514;7.080;2022-07-17T05:29:01;102119.78;;;14.64;68.00
22688;BME280;11511;51.514;7.080;2022-07-17T05:31:27;102125.41;;;14.82;66.88
22688;BME280;11511;51.514;7.080;2022-07-17T05:33:53;102124.22;;;14.93;67.19
22688;BME280;11511;51.514;7.080;2022-07-17T05:36:19;102126.91;;;14.91;66.60
22688;BME280;11511;51.514;7.080;2022-07-17T05:38:44;102121.59;;;14.91;65.86
22688;BME280;11511;51.514;7.080;2022-07-17T05:41:10;102121.06;;;15.08;65.31
22688;BME280;11511;51.514;7.080;2022-07-17T05:43:36;102120.09;;;15.10;65.17
22688;BME280;11511;51.514;7.080;2022-07-17T05:46:02;102112.00;;;15.15;64.74
22688;BME280;11511;51.514;7.080;2022-07-17T05:48:30;102111.41;;;15.33;64.16
22688;BME280;11511;51.514;7.080;2022-07-17T05:50:56;102106.69;;;15.43;64.15
22688;BME280;11511;51.514;7.080;2022-07-17T05:53:22;102103.16;;;15.42;64.65
22688;BME280;11511;51.514;7.080;2022-07-17T05:55:48;102106.28;;;15.55;63.11
22688;BME280;11511;51.514;7.080;2022-07-17T05:58:15;102114.19;;;15.58;63.23
22688;BME280;11511;51.514;7.080;2022-07-17T06:00:41;102116.06;;;15.81;62.00
22688;BME280;11511;51.514;7.080;2022-07-17T06:03:07;102115.81;;;15.87;62.89
22688;BME280;11511;51.514;7.080;2022-07-17T06:05:32;102104.84;;;15.98;62.62
22688;BME280;11511;51.514;7.080;2022-07-17T06:07:58;102097.94;;;16.17;61.46
22688;BME280;11511;51.514;7.080;2022-07-17T06:10:25;102098.63;;;16.22;61.00
22688;BME280;11511;51.514;7.080;2022-07-17T06:12:51;102101.44;;;16.17;60.11
22688;BME280;11511;51.514;7.080;2022-07-17T06:15:22;102110.41;;;16.40;59.72
22688;BME280;11511;51.514;7.080;2022-07-17T06:17:48;102106.09;;;16.12;59.93
22688;BME280;11511;51.514;7.080;2022-07-17T06:20:16;102107.81;;;16.38;59.85
22688;BME280;11511;51.514;7.080;2022-07-17T06:22:42;102096.47;;;16.33;59.29
22688;BME280;11511;51.514;7.080;2022-07-17T06:25:09;102089.97;;;16.65;58.39
22688;BME280;11511;51.514;7.080;2022-07-17T06:27:35;102098.56;;;16.72;58.36
22688;BME280;11511;51.514;7.080;2022-07-17T06:30:01;102098.91;;;16.86;57.96
22688;BME280;11511;51.514;7.080;2022-07-17T06:32:26;102106.59;;;16.94;57.54
22688;BME280;11511;51.514;7.080;2022-07-17T06:34:53;102105.75;;;17.15;56.94
22688;BME280;11511;51.514;7.080;2022-07-17T06:37:19;102099.59;;;17.13;56.86
22688;BME280;11511;51.514;7.080;2022-07-17T06:39:44;102106.53;;;17.39;56.50
22688;BME280;11511;51.514;7.080;2022-07-17T06:42:11;102102.31;;;17.33;55.79
22688;BME280;11511;51.514;7.080;2022-07-17T06:44:37;102107.28;;;17.84;54.57
22688;BME280;11511;51.514;7.080;2022-07-17T06:47:04;102114.84;;;17.75;54.83
22688;BME280;11511;51.514;7.080;2022-07-17T06:49:29;102115.63;;;17.97;55.16
22688;BME280;11511;51.514;7.080;2022-07-17T06:51:55;102112.50;;;17.87;56.48
22688;BME280;11511;51.514;7.080;2022-07-17T06:54:21;102114.16;;;17.70;55.96
22688;BME280;11511;51.514;7.080;2022-07-17T06:56:50;102110.97;;;17.60;55.64
22688;BME280;11511;51.514;7.080;2022-07-17T06:59:16;102109.97;;;17.63;55.44
22688;BME280;11511;51.514;7.080;2022-07-17T07:01:43;102114.47;;;17.82;54.74
22688;BME280;11511;51.514;7.080;2022-07-17T07:04:08;102121.22;;;18.11;54.55
22688;BME280;11511;51.514;7.080;2022-07-17T07:06:34;102118.84;;;18.05;53.86
22688;BME280;11511;51.514;7.080;2022-07-17T07:09:00;102124.75;;;18.32;53.70
22688;BME280;11511;51.514;7.080;2022-07-17T07:11:26;102113.84;;;18.57;52.60
22688;BME280;11511;51.514;7.080;2022-07-17T07:13:52;102106.13;;;18.70;52.21
22688;BME280;11511;51.514;7.080;2022-07-17T07:16:18;102102.97;;;18.99;52.35
22688;BME280;11511;51.514;7.080;2022-07-17T07:18:44;102101.97;;;19.19;51.35
22688;BME280;11511;51.514;7.080;2022-07-17T07:21:10;102094.63;;;19.24;52.83
22688;BME280;11511;51.514;7.080;2022-07-17T07:23:35;102095.09;;;18.96;50.92
22688;BME280;11511;51.514;7.080;2022-07-17T07:26:02;102091.28;;;19.19;50.26
22688;BME280;11511;51.514;7.080;2022-07-17T07:28:28;102096.78;;;19.35;49.46
22688;BME280;11511;51.514;7.080;2022-07-17T07:30:53;102098.44;;;19.37;50.03
22688;BME280;11511;51.514;7.080;2022-07-17T07:33:19;102106.16;;;19.24;49.54
22688;BME280;11511;51.514;7.080;2022-07-17T07:35:45;102105.53;;;19.55;49.75
22688;BME280;11511;51.514;7.080;2022-07-17T07:38:11;102102.00;;;19.72;49.98
22688;BME280;11511;51.514;7.080;2022-07-17T07:40:37;102111.56;;;20.45;47.69
22688;BME280;11511;51.514;7.080;2022-07-17T07:43:03;102110.56;;;20.64;46.91
22688;BME280;11511;51.514;7.080;2022-07-17T07:45:31;102112.09;;;20.35;47.40
22688;BME280;11511;51.514;7.080;2022-07-17T07:47:57;102124.38;;;20.72;47.15
22688;BME280;11511;51.514;7.080;2022-07-17T07:50:24;102132.84;;;20.80;45.75
22688;BME280;11511;51.514;7.080;2022-07-17T07:52:51;102138.59;;;21.05;45.22
22688;BME280;11511;51.514;7.080;2022-07-17T07:55:17;102129.66;;;21.52;44.41
22688;BME280;11511;51.514;7.080;2022-07-17T07:57:43;102138.16;;;21.44;44.66
22688;BME280;11511;51.514;7.080;2022-07-17T08:00:10;102135.22;;;21.49;44.43
22688;BME280;11511;51.514;7.080;2022-07-17T08:02:40;102137.03;;;21.17;44.79
22688;BME280;11511;51.514;7.080;2022-07-17T08:05:08;102136.06;;;21.34;45.84
22688;BME280;11511;51.514;7.080;2022-07-17T08:07:35;102135.91;;;21.37;44.69
22688;BME280;11511;51.514;7.080;2022-07-17T08:10:03;102137.75;;;22.26;42.72
22688;BME280;11511;51.514;7.080;2022-07-17T08:12:28;102147.50;;;21.06;46.30
22688;BME280;11511;51.514;7.080;2022-07-17T08:14:54;102146.88;;;22.94;41.12
22688;BME280;11511;51.514;7.080;2022-07-17T08:17:20;102147.38;;;23.82;39.18
22688;BME280;11511;51.514;7.080;2022-07-17T08:19:46;102152.91;;;23.93;38.07
22688;BME280;11511;51.514;7.080;2022-07-17T08:22:11;102158.19;;;23.41;39.11
22688;BME280;11511;51.514;7.080;2022-07-17T08:24:38;102164.19;;;25.96;34.69
22688;BME280;11511;51.514;7.080;2022-07-17T08:27:04;102163.81;;;26.58;33.33
22688;BME280;11511;51.514;7.080;2022-07-17T08:29:30;102159.75;;;25.95;34.09
22688;BME280;11511;51.514;7.080;2022-07-17T08:31:56;102154.81;;;24.31;36.68
22688;BME280;11511;51.514;7.080;2022-07-17T08:34:21;102155.31;;;25.23;35.37
22688;BME280;11511;51.514;7.080;2022-07-17T08:36:48;102156.44;;;23.54;38.14
22688;BME280;11511;51.514;7.080;2022-07-17T08:39:14;102152.69;;;25.58;35.16
22688;BME280;11511;51.514;7.080;2022-07-17T08:41:40;102153.31;;;25.14;35.76
22688;BME280;11511;51.514;7.080;2022-07-17T08:44:07;102147.81;;;25.87;34.46
22688;BME280;11511;51.514;7.080;2022-07-17T08:46:37;102158.13;;;25.45;35.79
22688;BME280;11511;51.514;7.080;2022-07-17T08:49:04;102160.56;;;25.85;35.55
22688;BME280;11511;51.514;7.080;2022-07-17T08:51:31;102156.06;;;29.08;28.93
22688;BME280;11511;51.514;7.080;2022-07-17T08:53:59;102158.28;;;31.04;26.53
22688;BME280;11511;51.514;7.080;2022-07-17T08:56:26;102169.16;;;27.37;31.42
22688;BME280;11511;51.514;7.080;2022-07-17T08:58:52;102161.53;;;30.62;26.42
22688;BME280;11511;51.514;7.080;2022-07-17T09:01:19;102172.63;;;32.74;23.65
22688;BME280;11511;51.514;7.080;2022-07-17T09:04:02;102173.03;;;35.07;20.67
22688;BME280;11511;51.514;7.080;2022-07-17T09:06:34;102171.22;;;37.10;19.05
22688;BME280;11511;51.514;7.080;2022-07-17T09:09:06;102166.34;;;35.40;20.61
22688;BME280;11511;51.514;7.080;2022-07-17T09:11:48;102168.56;;;35.45;20.18
22688;BME280;11511;51.514;7.080;2022-07-17T09:14:16;102169.41;;;34.67;21.06
22688;BME280;11511;51.514;7.080;2022-07-17T09:16:57;102166.50;;;36.59;19.00
22688;BME280;11511;51.514;7.080;2022-07-17T09:19:34;102169.53;;;37.45;17.68
22688;BME280;11511;51.514;7.080;2022-07-17T09:22:14;102167.94;;;32.67;22.11
22688;BME280;11511;51.514;7.080;2022-07-17T09:24:51;102160.25;;;32.96;22.39
22688;BME280;11511;51.514;7.080;2022-07-17T09:30:03;102155.34;;;36.61;18.32
22688;BME280;11511;51.514;7.080;2022-07-17T09:32:32;102152.13;;;36.28;18.12
22688;BME280;11511;51.514;7.080;2022-07-17T09:35:01;102166.94;;;38.29;16.41
22688;BME280;11511;51.514;7.080;2022-07-17T09:37:28;102156.13;;;34.48;19.51
22688;BME280;11511;51.514;7.080;2022-07-17T09:39:55;102157.75;;;37.93;16.69
22688;BME280;11511;51.514;7.080;2022-07-17T09:47:22;102161.91;;;39.21;15.59
22688;BME280;11511;51.514;7.080;2022-07-17T09:49:48;102160.00;;;35.09;18.99
22688;BME280;11511;51.514;7.080;2022-07-17T09:52:16;102159.50;;;36.72;16.92
22688;BME280;11511;51.514;7.080;2022-07-17T09:54:44;102152.22;;;34.98;18.71
22688;BME280;11511;51.514;7.080;2022-07-17T09:57:13;102147.44;;;34.36;19.07
22688;BME280;11511;51.514;7.080;2022-07-17T09:59:41;102150.31;;;36.50;18.56
22688;BME280;11511;51.514;7.080;2022-07-17T10:02:09;102156.50;;;39.47;15.14
22688;BME280;11511;51.514;7.080;2022-07-17T10:04:35;102163.59;;;39.15;15.53
22688;BME280;11511;51.514;7.080;2022-07-17T10:07:02;102161.81;;;39.55;15.29
22688;BME280;11511;51.514;7.080;2022-07-17T10:09:29;102166.13;;;39.04;15.21
22688;BME280;11511;51.514;7.080;2022-07-17T10:11:56;102158.28;;;39.07;14.93
22688;BME280;11511;51.514;7.080;2022-07-17T10:14:22;102159.81;;;34.79;19.89
22688;BME280;11511;51.514;7.080;2022-07-17T10:16:48;102164.78;;;35.91;18.21
22688;BME280;11511;51.514;7.080;2022-07-17T10:19:22;102170.06;;;37.76;16.88
22688;BME280;11511;51.514;7.080;2022-07-17T10:22:04;102171.09;;;37.18;18.04
22688;BME280;11511;51.514;7.080;2022-07-17T10:24:32;102167.41;;;37.11;17.50
22688;BME280;11511;51.514;7.080;2022-07-17T10:26:58;102165.72;;;38.72;16.03
22688;BME280;11511;51.514;7.080;2022-07-17T10:29:34;102166.75;;;38.37;15.98
22688;BME280;11511;51.514;7.080;2022-07-17T10:32:17;102160.34;;;36.43;17.77
22688;BME280;11511;51.514;7.080;2022-07-17T10:34:48;102156.28;;;36.53;17.20
22688;BME280;11511;51.514;7.080;2022-07-17T10:37:26;102156.72;;;33.78;19.41
22688;BME280;11511;51.514;7.080;2022-07-17T10:42:47;102151.44;;;36.70;17.31
22688;BME280;11511;51.514;7.080;2022-07-17T10:45:37;102148.41;;;36.94;16.79
22688;BME280;11511;51.514;7.080;2022-07-17T10:48:10;102157.41;;;38.31;14.98
22688;BME280;11511;51.514;7.080;2022-07-17T10:50:48;102146.31;;;37.69;15.39
22688;BME280;11511;51.514;7.080;2022-07-17T10:53:28;102148.66;;;38.21;15.82
22688;BME280;11511;51.514;7.080;2022-07-17T10:55:58;102152.97;;;39.06;15.07
22688;BME280;11511;51.514;7.080;2022-07-17T11:01:12;102153.91;;;39.33;15.16
22688;BME280;11511;51.514;7.080;2022-07-17T11:08:55;102146.94;;;40.29;14.40
22688;BME280;11511;51.514;7.080;2022-07-17T11:11:38;102148.72;;;36.85;16.47
22688;BME280;11511;51.514;7.080;2022-07-17T11:14:14;102144.53;;;34.93;18.59
22688;BME280;11511;51.514;7.080;2022-07-17T11:16:48;102143.34;;;33.59;19.68
22688;BME280;11511;51.514;7.080;2022-07-17T11:19:32;102139.81;;;36.39;16.94
22688;BME280;11511;51.514;7.080;2022-07-17T11:22:01;102136.34;;;37.10;17.09
22688;BME280;11511;51.514;7.080;2022-07-17T11:24:42;102136.63;;;38.22;15.62
22688;BME280;11511;51.514;7.080;2022-07-17T11:27:32;102143.75;;;37.10;17.22
22688;BME280;11511;51.514;7.080;2022-07-17T11:30:00;102136.88;;;38.27;16.22
22688;BME280;11511;51.514;7.080;2022-07-17T11:32:35;102131.69;;;36.31;17.27
22688;BME280;11511;51.514;7.080;2022-07-17T11:35:13;102141.53;;;36.84;16.89
22688;BME280;11511;51.514;7.080;2022-07-17T11:37:39;102136.78;;;36.48;17.02
22688;BME280;11511;51.514;7.080;2022-07-17T11:40:05;102131.88;;;37.24;16.47
22688;BME280;11511;51.514;7.080;2022-07-17T11:42:31;102124.47;;;37.88;15.58
22688;BME280;11511;51.514;7.080;2022-07-17T11:44:59;102121.66;;;39.33;14.75
22688;BME280;11511;51.514;7.080;2022-07-17T11:47:26;102124.63;;;37.59;15.73
22688;BME280;11511;51.514;7.080;2022-07-17T11:50:08;102126.38;;;38.91;15.30
22688;BME280;11511;51.514;7.080;2022-07-17T11:52:46;102124.84;;;36.41;16.46
22688;BME280;11511;51.514;7.080;2022-07-17T11:55:14;102121.91;;;37.23;17.49
22688;BME280;11511;51.514;7.080;2022-07-17T11:57:46;102118.34;;;36.27;17.77
22688;BME280;11511;51.514;7.080;2022-07-17T12:00:15;102117.97;;;37.68;16.28
22688;BME280;11511;51.514;7.080;2022-07-17T12:02:42;102117.69;;;34.25;19.40
22688;BME280;11511;51.514;7.080;2022-07-17T12:05:08;102109.34;;;34.10;18.82
22688;BME280;11511;51.514;7.080;2022-07-17T12:07:42;102110.19;;;36.49;17.36
22688;BME280;11511;51.514;7.080;2022-07-17T12:10:29;102111.72;;;36.37;17.17
22688;BME280;11511;51.514;7.080;2022-07-17T12:15:45;102105.34;;;36.21;17.33
22688;BME280;11511;51.514;7.080;2022-07-17T12:18:28;102108.66;;;37.69;15.57
22688;BME280;11511;51.514;7.080;2022-07-17T12:20:57;102115.38;;;37.88;16.57
22688;BME280;11511;51.514;7.080;2022-07-17T12:23:37;102113.34;;;36.97;16.09
22688;BME280;11511;51.514;7.080;2022-07-17T12:28:33;102100.94;;;34.75;18.08
22688;BME280;11511;51.514;7.080;2022-07-17T12:30:58;102103.38;;;33.58;20.39
22688;BME280;11511;51.514;7.080;2022-07-17T12:33:24;102087.09;;;34.21;19.48
22688;BME280;11511;51.514;7.080;2022-07-17T12:35:51;102086.41;;;33.22;19.86
22688;BME280;11511;51.514;7.080;2022-07-17T12:38:17;102085.59;;;36.55;16.41
22688;BME280;11511;51.514;7.080;2022-07-17T12:40:42;102085.63;;;36.91;15.75
22688;BME280;11511;51.514;7.080;2022-07-17T12:43:08;102080.34;;;35.18;16.96
22688;BME280;11511;51.514;7.080;2022-07-17T12:45:35;102085.44;;;33.31;18.31
22688;BME280;11511;51.514;7.080;2022-07-17T12:48:01;102085.03;;;33.18;18.79
22688;BME280;11511;51.514;7.080;2022-07-17T12:50:27;102077.75;;;33.75;18.54
22688;BME280;11511;51.514;7.080;2022-07-17T12:52:52;102071.97;;;34.50;17.21
22688;BME280;11511;51.514;7.080;2022-07-17T12:55:18;102070.41;;;33.92;17.94
22688;BME280;11511;51.514;7.080;2022-07-17T12:57:45;102078.22;;;32.63;18.93
22688;BME280;11511;51.514;7.080;2022-07-17T13:00:12;102076.94;;;32.42;19.28
22688;BME280;11511;51.514;7.080;2022-07-17T13:02:39;102073.75;;;31.69;19.12
22688;BME280;11511;51.514;7.080;2022-07-17T13:05:05;102061.81;;;34.67;17.24
22688;BME280;11511;51.514;7.080;2022-07-17T13:07:31;102079.63;;;35.24;16.34
22688;BME280;11511;51.514;7.080;2022-07-17T13:09:57;102071.97;;;33.29;17.47
22688;BME280;11511;51.514;7.080;2022-07-17T13:12:23;102072.91;;;34.73;15.74
22688;BME280;11511;51.514;7.080;2022-07-17T13:14:51;102069.19;;;36.03;15.72
22688;BME280;11511;51.514;7.080;2022-07-17T13:17:16;102071.94;;;36.47;15.03